createdAt,value
2018-01-20T00:00:05.540Z,0
2018-01-20T00:01:05.317Z,0
2018-01-20T00:02:05.508Z,0
2018-01-20T00:03:04.960Z,0
2018-01-20T00:04:05.289Z,0
2018-01-20T00:05:05.459Z,0
2018-01-20T00:06:05.177Z,0
2018-01-20T00:07:05.197Z,0
2018-01-20T00:08:04.585Z,0
2018-01-20T00:09:05.093Z,0
2018-01-20T00:10:04.807Z,0
2018-01-20T00:11:05.079Z,0
2018-01-20T00:12:05.070Z,0
2018-01-20T00:13:05.293Z,0
2018-01-20T00:14:04.461Z,0
2018-01-20T00:15:04.723Z,0
2018-01-20T00:16:04.985Z,0
2018-01-20T00:17:04.430Z,0
2018-01-20T00:18:04.654Z,0
2018-01-20T00:19:04.854Z,0
2018-01-20T00:20:04.911Z,0
2018-01-20T00:21:04.633Z,0
2018-01-20T00:22:04.884Z,0
2018-01-20T00:23:04.838Z,0
2018-01-20T00:24:04.550Z,0
2018-01-20T00:25:04.255Z,0
2018-01-20T00:26:04.790Z,0
2018-01-20T00:27:04.497Z,0
2018-01-20T00:28:05.017Z,0
2018-01-20T00:29:04.204Z,0
2018-01-20T00:30:04.469Z,0
2018-01-20T00:31:04.423Z,0
2018-01-20T00:32:04.417Z,0
2018-01-20T00:33:04.659Z,0
2018-01-20T00:34:04.651Z,0
2018-01-20T00:35:04.609Z,0
2018-01-20T00:36:04.326Z,0
2018-01-20T00:37:04.595Z,0
2018-01-20T00:38:04.571Z,0
2018-01-20T00:39:04.670Z,0
2018-01-20T00:40:04.460Z,0
2018-01-20T00:41:04.539Z,0
2018-01-20T00:42:04.216Z,0
2018-01-20T00:43:04.461Z,0
2018-01-20T00:44:04.448Z,0
2018-01-20T00:45:04.286Z,0
2018-01-20T00:46:03.870Z,0
2018-01-20T00:47:04.388Z,0
2018-01-20T00:48:04.641Z,0
2018-01-20T00:49:04.077Z,0
2018-01-20T00:50:04.063Z,0
2018-01-20T00:51:04.054Z,0
2018-01-20T00:52:04.025Z,0
2018-01-20T00:53:04.031Z,0
2018-01-20T00:54:04.257Z,0
2018-01-20T00:55:03.703Z,0
2018-01-20T00:56:04.502Z,0
2018-01-20T00:57:04.480Z,0
2018-01-20T00:58:03.967Z,0
2018-01-20T00:59:03.924Z,0
2018-01-20T01:00:04.419Z,0
2018-01-20T01:01:03.885Z,0
2018-01-20T01:02:03.576Z,0
2018-01-20T01:03:03.552Z,0
2018-01-20T01:04:03.802Z,0
2018-01-20T01:05:03.808Z,0
2018-01-20T01:06:04.036Z,0
2018-01-20T01:07:03.473Z,0
2018-01-20T01:08:04.019Z,0
2018-01-20T01:09:04.003Z,0
2018-01-20T01:10:04.254Z,0
2018-01-20T01:11:03.696Z,0
2018-01-20T01:12:03.685Z,0
2018-01-20T01:13:03.651Z,0
2018-01-20T01:14:03.887Z,0
2018-01-20T01:15:03.864Z,0
2018-01-20T01:16:03.892Z,0
2018-01-20T01:17:03.292Z,0
2018-01-20T01:18:03.538Z,0
2018-01-20T01:19:03.255Z,0
2018-01-20T01:20:03.771Z,0
2018-01-20T01:21:03.215Z,0
2018-01-20T01:22:03.465Z,0
2018-01-20T01:23:03.719Z,0
2018-01-20T01:24:03.469Z,0
2018-01-20T01:25:03.408Z,0
2018-01-20T01:26:03.949Z,0
2018-01-20T01:27:03.383Z,0
2018-01-20T01:28:03.370Z,0
2018-01-20T01:29:03.606Z,0
2018-01-20T01:30:03.331Z,0
2018-01-20T01:31:03.307Z,0
2018-01-20T01:32:03.015Z,0
2018-01-20T01:33:03.268Z,0
2018-01-20T01:34:02.995Z,0
2018-01-20T01:35:03.494Z,0
2018-01-20T01:36:03.234Z,0
2018-01-20T01:37:02.918Z,0
2018-01-20T01:38:03.167Z,0
2018-01-20T01:39:03.721Z,0
2018-01-20T01:40:03.410Z,0
2018-01-20T01:41:03.386Z,0
2018-01-20T01:42:02.823Z,0
2018-01-20T01:43:03.074Z,0
2018-01-20T01:44:03.323Z,0
2018-01-20T01:45:03.309Z,0
2018-01-20T01:46:03.024Z,0
2018-01-20T01:47:02.732Z,0
2018-01-20T01:48:02.992Z,0
2018-01-20T01:49:02.985Z,0
2018-01-20T01:50:03.525Z,0
2018-01-20T01:51:03.768Z,0
2018-01-20T01:52:02.918Z,0
2018-01-20T01:53:02.928Z,0
2018-01-20T01:54:02.597Z,0
2018-01-20T01:55:02.879Z,0
2018-01-20T01:56:02.832Z,0
2018-01-20T01:57:03.357Z,0
2018-01-20T01:58:03.068Z,0
2018-01-20T01:59:03.067Z,0
2018-01-20T02:00:02.758Z,0
2018-01-20T02:01:02.497Z,0
2018-01-20T02:02:02.991Z,0
2018-01-20T02:03:02.732Z,0
2018-01-20T02:04:03.223Z,0
2018-01-20T02:05:02.693Z,0
2018-01-20T02:06:02.644Z,0
2018-01-20T02:07:02.363Z,0
2018-01-20T02:08:02.613Z,0
2018-01-20T02:09:03.137Z,0
2018-01-20T02:10:02.840Z,0
2018-01-20T02:11:03.367Z,0
2018-01-20T02:12:02.801Z,0
2018-01-20T02:13:02.519Z,0
2018-01-20T02:14:02.240Z,0
2018-01-20T02:15:02.762Z,0
2018-01-20T02:16:02.751Z,0
2018-01-20T02:17:02.716Z,0
2018-01-20T02:18:02.442Z,0
2018-01-20T02:19:02.425Z,0
2018-01-20T02:20:02.747Z,0
2018-01-20T02:21:02.634Z,0
2018-01-20T02:22:02.442Z,0
2018-01-20T02:23:02.724Z,0
2018-01-20T02:24:02.877Z,0
2018-01-20T02:25:02.342Z,0
2018-01-20T02:26:02.305Z,0
2018-01-20T02:27:02.269Z,0
2018-01-20T02:28:02.503Z,0
2018-01-20T02:29:02.224Z,0
2018-01-20T02:30:02.498Z,0
2018-01-20T02:31:02.461Z,0
2018-01-20T02:32:02.478Z,0
2018-01-20T02:33:02.688Z,0
2018-01-20T02:34:02.140Z,0
2018-01-20T02:35:02.105Z,0
2018-01-20T02:36:02.085Z,0
2018-01-20T02:37:02.077Z,0
2018-01-20T02:38:02.126Z,0
2018-01-20T02:39:02.030Z,0
2018-01-20T02:40:02.032Z,0
2018-01-20T02:41:01.992Z,0
2018-01-20T02:42:01.706Z,0
2018-01-20T02:43:01.687Z,0
2018-01-20T02:44:02.512Z,0
2018-01-20T02:45:01.913Z,0
2018-01-20T02:46:02.184Z,0
2018-01-20T02:47:01.878Z,0
2018-01-20T02:48:02.710Z,0
2018-01-20T02:49:01.577Z,0
2018-01-20T02:50:01.837Z,0
2018-01-20T02:51:01.533Z,0
2018-01-20T02:52:01.789Z,0
2018-01-20T02:53:01.498Z,0
2018-01-20T02:54:01.763Z,0
2018-01-20T02:55:01.453Z,0
2018-01-20T02:56:01.438Z,0
2018-01-20T02:57:01.689Z,0
2018-01-20T02:58:01.687Z,0
2018-01-20T02:59:01.950Z,0
2018-01-20T03:00:01.636Z,0
2018-01-20T03:01:01.630Z,0
2018-01-20T03:02:01.348Z,0
2018-01-20T03:03:01.586Z,0
2018-01-20T03:04:01.840Z,0
2018-01-20T03:05:01.559Z,0
2018-01-20T03:06:01.259Z,0
2018-01-20T03:07:01.780Z,0
2018-01-20T03:08:01.482Z,0
2018-01-20T03:09:01.473Z,0
2018-01-20T03:10:01.986Z,0
2018-01-20T03:11:02.234Z,0
2018-01-20T03:12:01.408Z,0
2018-01-20T03:13:01.409Z,0
2018-01-20T03:14:01.931Z,0
2018-01-20T03:15:01.081Z,0
2018-01-20T03:16:01.611Z,0
2018-01-20T03:17:01.062Z,0
2018-01-20T03:18:01.024Z,0
2018-01-20T03:19:01.299Z,0
2018-01-20T03:20:02.091Z,0
2018-01-20T03:21:01.512Z,0
2018-01-20T03:22:01.512Z,0
2018-01-20T03:23:01.212Z,0
2018-01-20T03:24:01.184Z,0
2018-01-20T03:25:01.180Z,0
2018-01-20T03:26:01.418Z,0
2018-01-20T03:27:01.404Z,0
2018-01-20T03:28:01.403Z,0
2018-01-20T03:29:01.392Z,0
2018-01-20T03:30:00.799Z,0
2018-01-20T03:31:01.055Z,0
2018-01-20T03:32:01.315Z,0
2018-01-20T03:33:00.749Z,0
2018-01-20T03:34:01.016Z,0
2018-01-20T03:35:00.706Z,0
2018-01-20T03:36:00.709Z,0
2018-01-20T03:37:01.213Z,0
2018-01-20T03:38:00.921Z,0
2018-01-20T03:39:01.174Z,0
2018-01-20T03:40:00.625Z,0
2018-01-20T03:41:00.868Z,0
2018-01-20T03:42:00.588Z,0
2018-01-20T03:43:00.874Z,0
2018-01-20T03:44:00.858Z,0
2018-01-20T03:45:00.811Z,0
2018-01-20T03:46:00.793Z,0
2018-01-20T03:47:01.025Z,0
2018-01-20T03:48:00.735Z,0
2018-01-20T03:49:00.716Z,0
2018-01-20T03:50:00.696Z,0
2018-01-20T03:51:00.416Z,0
2018-01-20T03:52:00.932Z,0
2018-01-20T03:53:00.936Z,0
2018-01-20T03:54:00.636Z,0
2018-01-20T03:55:00.900Z,0
2018-01-20T03:56:00.316Z,0
2018-01-20T03:57:01.125Z,0
2018-01-20T03:58:00.560Z,0
2018-01-20T03:59:00.803Z,0
2018-01-20T04:00:00.510Z,0
2018-01-20T04:01:00.223Z,0
2018-01-20T04:02:00.475Z,0
2018-01-20T04:03:00.461Z,0
2018-01-20T04:04:00.979Z,0
2018-01-20T04:05:00.421Z,0
2018-01-20T04:06:00.956Z,0
2018-01-20T04:07:00.928Z,0
2018-01-20T04:08:00.365Z,0
2018-01-20T04:09:00.361Z,0
2018-01-20T04:10:00.056Z,0
2018-01-20T04:11:00.580Z,0
2018-01-20T04:12:00.561Z,0
2018-01-20T04:13:00.268Z,0
2018-01-20T04:14:00.248Z,0
2018-01-20T04:15:00.235Z,0
2018-01-20T04:15:59.952Z,0
2018-01-20T04:16:59.945Z,0
2018-01-20T04:18:00.195Z,0
2018-01-20T04:19:00.728Z,0
2018-01-20T04:20:00.677Z,0
2018-01-20T04:21:00.142Z,0
2018-01-20T04:22:00.132Z,0
2018-01-20T04:23:00.359Z,0
2018-01-20T04:23:59.796Z,0
2018-01-20T04:24:59.793Z,0
2018-01-20T04:26:00.597Z,0
2018-01-20T04:26:59.741Z,0
2018-01-20T04:28:00.022Z,0
2018-01-20T04:28:59.974Z,0
2018-01-20T04:30:00.237Z,0
2018-01-20T04:30:59.664Z,0
2018-01-20T04:31:59.915Z,0
2018-01-20T04:33:00.449Z,0
2018-01-20T04:33:59.899Z,0
2018-01-20T04:34:59.860Z,0
2018-01-20T04:35:59.868Z,0
2018-01-20T04:36:59.552Z,0
2018-01-20T04:37:59.536Z,0
2018-01-20T04:39:00.071Z,0
2018-01-20T04:39:59.796Z,0
2018-01-20T04:40:59.751Z,0
2018-01-20T04:42:00.023Z,0
2018-01-20T04:42:59.439Z,0
2018-01-20T04:44:00.240Z,0
2018-01-20T04:44:59.702Z,0
2018-01-20T04:45:59.935Z,0
2018-01-20T04:46:59.373Z,0
2018-01-20T04:47:59.657Z,0
2018-01-20T04:48:59.325Z,0
2018-01-20T04:49:59.329Z,0
2018-01-20T04:50:59.562Z,0
2018-01-20T04:51:59.551Z,0
2018-01-20T04:52:59.544Z,0
2018-01-20T04:53:59.233Z,0
2018-01-20T04:54:59.498Z,0
2018-01-20T04:56:00.010Z,0
2018-01-20T04:56:59.445Z,0
2018-01-20T04:57:59.182Z,0
2018-01-20T04:58:59.741Z,0
2018-01-20T04:59:59.124Z,0
2018-01-20T05:00:59.653Z,0
2018-01-20T05:01:59.385Z,0
2018-01-20T05:02:59.066Z,0
2018-01-20T05:03:59.323Z,0
2018-01-20T05:04:59.026Z,0
2018-01-20T05:05:59.290Z,0
2018-01-20T05:06:59.548Z,0
2018-01-20T05:07:59.778Z,0
2018-01-20T05:08:59.244Z,0
2018-01-20T05:09:59.234Z,0
2018-01-20T05:10:58.908Z,0
2018-01-20T05:11:59.165Z,0
2018-01-20T05:12:59.709Z,0
2018-01-20T05:13:58.855Z,0
2018-01-20T05:14:59.123Z,0
2018-01-20T05:15:59.091Z,0
2018-01-20T05:16:59.066Z,0
2018-01-20T05:17:59.316Z,0
2018-01-20T05:18:59.592Z,0
2018-01-20T05:19:59.563Z,0
2018-01-20T05:20:58.989Z,0
2018-01-20T05:21:59.241Z,0
2018-01-20T05:22:58.952Z,0
2018-01-20T05:23:59.243Z,0
2018-01-20T05:24:58.645Z,0
2018-01-20T05:25:58.624Z,0
2018-01-20T05:26:58.881Z,0
2018-01-20T05:27:58.601Z,0
2018-01-20T05:28:59.117Z,0
2018-01-20T05:29:58.819Z,0
2018-01-20T05:30:58.528Z,0
2018-01-20T05:31:58.797Z,0
2018-01-20T05:32:58.764Z,0
2018-01-20T05:33:58.474Z,0
2018-01-20T05:34:58.996Z,0
2018-01-20T05:35:58.737Z,0
2018-01-20T05:36:58.971Z,0
2018-01-20T05:37:58.665Z,0
2018-01-20T05:38:58.402Z,0
2018-01-20T05:39:58.917Z,0
2018-01-20T05:40:58.371Z,0
2018-01-20T05:41:58.591Z,0
2018-01-20T05:42:58.967Z,0
2018-01-20T05:43:59.103Z,0
2018-01-20T05:44:58.545Z,0
2018-01-20T05:45:58.912Z,0
2018-01-20T05:46:58.780Z,0
2018-01-20T05:47:58.472Z,0
2018-01-20T05:48:58.464Z,0
2018-01-20T05:49:58.737Z,0
2018-01-20T05:50:58.698Z,0
2018-01-20T05:51:58.400Z,0
2018-01-20T05:52:58.388Z,0
2018-01-20T05:53:58.366Z,0
2018-01-20T05:54:58.609Z,0
2018-01-20T05:55:58.324Z,0
2018-01-20T05:56:58.310Z,0
2018-01-20T05:57:58.853Z,0
2018-01-20T05:58:58.279Z,0
2018-01-20T05:59:58.535Z,0
2018-01-20T06:00:58.498Z,0
2018-01-20T06:01:58.222Z,0
2018-01-20T06:02:58.188Z,0
2018-01-20T06:03:58.447Z,0
2018-01-20T06:04:58.693Z,0
2018-01-20T06:05:58.163Z,0
2018-01-20T06:06:57.840Z,0
2018-01-20T06:07:58.901Z,0
2018-01-20T06:08:58.072Z,0
2018-01-20T06:09:58.347Z,0
2018-01-20T06:10:58.323Z,0
2018-01-20T06:11:58.014Z,0
2018-01-20T06:12:57.995Z,0
2018-01-20T06:13:57.989Z,0
2018-01-20T06:14:58.282Z,0
2018-01-20T06:15:58.482Z,0
2018-01-20T06:16:58.467Z,0
2018-01-20T06:17:57.635Z,0
2018-01-20T06:18:58.171Z,0
2018-01-20T06:19:57.595Z,0
2018-01-20T06:20:57.845Z,0
2018-01-20T06:21:57.824Z,0
2018-01-20T06:22:58.076Z,0
2018-01-20T06:23:58.340Z,0
2018-01-20T06:24:57.772Z,0
2018-01-20T06:25:57.750Z,0
2018-01-20T06:26:57.735Z,0
2018-01-20T06:27:57.732Z,0
2018-01-20T06:28:57.984Z,0
2018-01-20T06:29:57.423Z,0
2018-01-20T06:30:57.658Z,0
2018-01-20T06:31:57.905Z,0
2018-01-20T06:32:57.623Z,0
2018-01-20T06:33:57.610Z,0
2018-01-20T06:34:57.580Z,0
2018-01-20T06:35:57.559Z,0
2018-01-20T06:36:57.816Z,0
2018-01-20T06:37:58.079Z,0
2018-01-20T06:38:57.239Z,0
2018-01-20T06:39:57.508Z,0
2018-01-20T06:40:57.232Z,0
2018-01-20T06:41:57.449Z,0
2018-01-20T06:42:57.972Z,0
2018-01-20T06:43:57.682Z,0
2018-01-20T06:44:57.938Z,0
2018-01-20T06:45:57.381Z,0
2018-01-20T06:46:57.384Z,0
2018-01-20T06:47:57.067Z,0
2018-01-20T06:48:57.052Z,0
2018-01-20T06:49:57.298Z,0
2018-01-20T06:50:57.011Z,0
2018-01-20T06:51:57.270Z,0
2018-01-20T06:52:57.778Z,0
2018-01-20T06:53:57.494Z,0
2018-01-20T06:54:57.782Z,0
2018-01-20T06:55:56.911Z,5
2018-01-20T06:56:57.165Z,5
2018-01-20T06:57:57.434Z,5
2018-01-20T06:58:57.149Z,5
2018-01-20T06:59:56.838Z,5
2018-01-20T07:00:57.093Z,5
2018-01-20T07:01:57.339Z,5
2018-01-20T07:02:57.072Z,5
2018-01-20T07:03:57.029Z,5
2018-01-20T07:04:57.284Z,5
2018-01-20T07:05:57.260Z,5
2018-01-20T07:06:57.254Z,5
2018-01-20T07:07:56.955Z,10
2018-01-20T07:08:56.664Z,10
2018-01-20T07:09:57.206Z,10
2018-01-20T07:10:56.899Z,10
2018-01-20T07:11:56.880Z,10
2018-01-20T07:12:56.908Z,10
2018-01-20T07:13:57.377Z,10
2018-01-20T07:14:56.572Z,10
2018-01-20T07:15:56.801Z,10
2018-01-20T07:16:57.321Z,10
2018-01-20T07:17:56.771Z,10
2018-01-20T07:18:56.470Z,10
2018-01-20T07:19:56.461Z,10
2018-01-20T07:20:56.722Z,10
2018-01-20T07:21:56.685Z,15
2018-01-20T07:22:57.216Z,15
2018-01-20T07:23:57.197Z,20
2018-01-20T07:24:56.908Z,20
2018-01-20T07:25:57.170Z,20
2018-01-20T07:26:56.865Z,20
2018-01-20T07:27:56.850Z,25
2018-01-20T07:28:56.621Z,25
2018-01-20T07:29:56.569Z,25
2018-01-20T07:30:56.523Z,30
2018-01-20T07:31:56.246Z,30
2018-01-20T07:32:56.492Z,30
2018-01-20T07:33:56.193Z,35
2018-01-20T07:34:56.710Z,40
2018-01-20T07:35:56.693Z,40
2018-01-20T07:36:56.133Z,45
2018-01-20T07:37:56.720Z,45
2018-01-20T07:38:59.954Z,45
2018-01-20T07:39:56.629Z,50
2018-01-20T07:40:56.079Z,55
2018-01-20T07:41:56.312Z,60
2018-01-20T07:42:56.313Z,60
2018-01-20T07:43:56.280Z,55
2018-01-20T07:44:56.260Z,55
2018-01-20T07:45:55.966Z,50
2018-01-20T07:46:56.553Z,50
2018-01-20T07:47:56.478Z,50
2018-01-20T07:48:56.188Z,50
2018-01-20T07:49:56.430Z,50
2018-01-20T07:50:56.161Z,50
2018-01-20T07:51:56.406Z,50
2018-01-20T07:52:56.119Z,50
2018-01-20T07:53:56.354Z,50
2018-01-20T07:54:55.814Z,50
2018-01-20T07:55:56.888Z,50
2018-01-20T07:56:56.860Z,50
2018-01-20T07:57:56.559Z,50
2018-01-20T07:58:56.266Z,55
2018-01-20T07:59:55.981Z,55
2018-01-20T08:00:56.227Z,60
2018-01-20T08:01:56.213Z,60
2018-01-20T08:02:55.940Z,60
2018-01-20T08:03:55.909Z,55
2018-01-20T08:04:55.902Z,50
2018-01-20T08:05:55.882Z,45
2018-01-20T08:06:55.844Z,40
2018-01-20T08:07:55.838Z,40
2018-01-20T08:08:55.561Z,40
2018-01-20T08:09:56.080Z,40
2018-01-20T08:10:56.376Z,45
2018-01-20T08:11:56.566Z,45
2018-01-20T08:12:56.320Z,50
2018-01-20T08:13:55.715Z,50
2018-01-20T08:14:56.238Z,50
2018-01-20T08:15:55.406Z,55
2018-01-20T08:16:55.661Z,50
2018-01-20T08:17:56.189Z,55
2018-01-20T08:18:55.628Z,55
2018-01-20T08:19:55.338Z,50
2018-01-20T08:20:55.596Z,45
2018-01-20T08:21:55.301Z,45
2018-01-20T08:22:55.829Z,45
2018-01-20T08:23:55.540Z,45
2018-01-20T08:24:56.099Z,50
2018-01-20T08:25:55.778Z,55
2018-01-20T08:26:55.751Z,65
2018-01-20T08:27:55.185Z,70
2018-01-20T08:28:55.714Z,80
2018-01-20T08:29:55.616Z,95
2018-01-20T08:30:55.770Z,95
2018-01-20T08:31:55.115Z,90
2018-01-20T08:32:55.368Z,90
2018-01-20T08:33:55.631Z,95
2018-01-20T08:34:55.349Z,100
2018-01-20T08:35:55.053Z,105
2018-01-20T08:36:55.338Z,100
2018-01-20T08:37:55.563Z,95
2018-01-20T08:38:55.529Z,90
2018-01-20T08:39:55.506Z,85
2018-01-20T08:40:55.216Z,80
2018-01-20T08:41:54.930Z,80
2018-01-20T08:42:54.916Z,85
2018-01-20T08:43:55.179Z,90
2018-01-20T08:44:55.421Z,95
2018-01-20T08:45:55.410Z,100
2018-01-20T08:46:54.839Z,110
2018-01-20T08:47:55.385Z,125
2018-01-20T08:48:54.799Z,140
2018-01-20T08:49:55.602Z,150
2018-01-20T08:50:55.052Z,145
2018-01-20T08:51:55.026Z,145
2018-01-20T08:52:54.810Z,150
2018-01-20T08:53:55.270Z,155
2018-01-20T08:54:55.518Z,170
2018-01-20T08:55:55.230Z,185
2018-01-20T08:56:55.466Z,185
2018-01-20T08:57:54.909Z,180
2018-01-20T08:58:55.160Z,170
2018-01-20T08:59:54.886Z,160
2018-01-20T09:00:55.119Z,145
2018-01-20T09:01:54.767Z,145
2018-01-20T09:02:55.117Z,145
2018-01-20T09:03:55.093Z,140
2018-01-20T09:04:55.064Z,130
2018-01-20T09:05:55.053Z,125
2018-01-20T09:06:55.027Z,120
2018-01-20T09:07:55.405Z,120
2018-01-20T09:08:54.710Z,120
2018-01-20T09:09:54.702Z,130
2018-01-20T09:10:54.672Z,130
2018-01-20T09:11:54.940Z,120
2018-01-20T09:12:54.921Z,110
2018-01-20T09:13:54.635Z,105
2018-01-20T09:14:54.884Z,110
2018-01-20T09:15:55.397Z,115
2018-01-20T09:16:55.106Z,120
2018-01-20T09:17:54.816Z,120
2018-01-20T09:18:54.797Z,110
2018-01-20T09:19:54.523Z,115
2018-01-20T09:20:55.051Z,120
2018-01-20T09:21:54.508Z,115
2018-01-20T09:22:54.726Z,130
2018-01-20T09:23:54.445Z,150
2018-01-20T09:24:54.451Z,165
2018-01-20T09:25:54.674Z,175
2018-01-20T09:26:54.932Z,185
2018-01-20T09:27:54.364Z,200
2018-01-20T09:28:54.372Z,220
2018-01-20T09:29:54.624Z,225
2018-01-20T09:30:54.313Z,240
2018-01-20T09:31:54.593Z,250
2018-01-20T09:32:54.552Z,255
2018-01-20T09:33:54.273Z,255
2018-01-20T09:34:54.784Z,255
2018-01-20T09:35:54.222Z,245
2018-01-20T09:36:54.476Z,215
2018-01-20T09:37:53.921Z,195
2018-01-20T09:38:53.919Z,185
2018-01-20T09:39:54.425Z,175
2018-01-20T09:40:54.139Z,165
2018-01-20T09:41:53.868Z,155
2018-01-20T09:42:53.832Z,150
2018-01-20T09:43:54.366Z,145
2018-01-20T09:44:54.352Z,135
2018-01-20T09:45:54.323Z,130
2018-01-20T09:46:54.042Z,130
2018-01-20T09:47:54.033Z,130
2018-01-20T09:48:53.737Z,130
2018-01-20T09:49:53.709Z,135
2018-01-20T09:50:53.968Z,145
2018-01-20T09:51:53.965Z,145
2018-01-20T09:52:53.659Z,150
2018-01-20T09:53:53.905Z,150
2018-01-20T09:54:53.893Z,160
2018-01-20T09:55:56.158Z,165
2018-01-20T09:56:54.029Z,165
2018-01-20T09:57:53.862Z,175
2018-01-20T09:58:54.113Z,185
2018-01-20T09:59:53.555Z,195
2018-01-20T10:00:53.784Z,190
2018-01-20T10:01:54.049Z,175
2018-01-20T10:02:53.750Z,170
2018-01-20T10:03:53.465Z,155
2018-01-20T10:04:53.990Z,145
2018-01-20T10:05:53.450Z,135
2018-01-20T10:06:53.686Z,130
2018-01-20T10:07:53.393Z,130
2018-01-20T10:08:53.673Z,140
2018-01-20T10:09:53.633Z,145
2018-01-20T10:10:54.173Z,155
2018-01-20T10:11:53.599Z,185
2018-01-20T10:12:53.870Z,210
2018-01-20T10:13:53.585Z,205
2018-01-20T10:14:53.814Z,215
2018-01-20T10:15:53.792Z,225
2018-01-20T10:16:54.323Z,245
2018-01-20T10:17:53.528Z,270
2018-01-20T10:18:53.777Z,270
2018-01-20T10:19:53.459Z,265
2018-01-20T10:20:53.713Z,260
2018-01-20T10:21:53.702Z,240
2018-01-20T10:22:53.405Z,235
2018-01-20T10:23:53.422Z,220
2018-01-20T10:24:53.913Z,225
2018-01-20T10:25:53.637Z,215
2018-01-20T10:26:53.611Z,215
2018-01-20T10:27:53.337Z,205
2018-01-20T10:28:53.573Z,210
2018-01-20T10:29:53.841Z,220
2018-01-20T10:30:53.565Z,225
2018-01-20T10:31:52.996Z,235
2018-01-20T10:32:52.992Z,225
2018-01-20T10:33:52.949Z,205
2018-01-20T10:34:53.217Z,185
2018-01-20T10:35:53.186Z,170
2018-01-20T10:36:53.169Z,170
2018-01-20T10:37:53.151Z,175
2018-01-20T10:38:53.142Z,165
2018-01-20T10:39:53.118Z,145
2018-01-20T10:40:53.101Z,145
2018-01-20T10:41:53.086Z,140
2018-01-20T10:42:52.795Z,125
2018-01-20T10:43:53.325Z,125
2018-01-20T10:44:53.318Z,145
2018-01-20T10:45:53.015Z,165
2018-01-20T10:46:53.548Z,160
2018-01-20T10:47:53.022Z,165
2018-01-20T10:48:52.730Z,165
2018-01-20T10:49:53.242Z,160
2018-01-20T10:50:52.964Z,155
2018-01-20T10:51:53.193Z,165
2018-01-20T10:52:53.710Z,185
2018-01-20T10:53:52.877Z,195
2018-01-20T10:54:53.147Z,210
2018-01-20T10:55:53.115Z,215
2018-01-20T10:56:52.591Z,215
2018-01-20T10:57:53.078Z,220
2018-01-20T10:58:52.792Z,215
2018-01-20T10:59:53.072Z,205
2018-01-20T11:00:52.509Z,205
2018-01-20T11:01:52.742Z,220
2018-01-20T11:02:52.722Z,225
2018-01-20T11:03:53.280Z,240
2018-01-20T11:04:52.959Z,255
2018-01-20T11:05:52.997Z,270
2018-01-20T11:06:52.945Z,280
2018-01-20T11:07:53.185Z,285
2018-01-20T11:08:52.896Z,280
2018-01-20T11:09:52.630Z,270
2018-01-20T11:10:52.877Z,265
2018-01-20T11:11:53.111Z,260
2018-01-20T11:12:52.853Z,255
2018-01-20T11:13:52.541Z,250
2018-01-20T11:14:52.581Z,250
2018-01-20T11:15:53.316Z,245
2018-01-20T11:16:52.759Z,240
2018-01-20T11:17:52.473Z,230
2018-01-20T11:18:52.729Z,230
2018-01-20T11:19:52.719Z,225
2018-01-20T11:20:52.445Z,220
2018-01-20T11:21:52.421Z,205
2018-01-20T11:22:52.142Z,190
2018-01-20T11:23:52.395Z,170
2018-01-20T11:24:52.659Z,160
2018-01-20T11:25:52.630Z,160
2018-01-20T11:26:52.327Z,170
2018-01-20T11:27:52.310Z,180
2018-01-20T11:28:52.579Z,190
2018-01-20T11:29:52.546Z,195
2018-01-20T11:30:52.297Z,200
2018-01-20T11:31:52.795Z,205
2018-01-20T11:32:52.501Z,215
2018-01-20T11:33:52.215Z,225
2018-01-20T11:34:58.486Z,230
2018-01-20T11:35:52.188Z,235
2018-01-20T11:36:52.454Z,230
2018-01-20T11:37:52.144Z,235
2018-01-20T11:38:52.442Z,235
2018-01-20T11:39:52.147Z,225
2018-01-20T11:40:52.363Z,220
2018-01-20T11:41:51.845Z,250
2018-01-20T11:42:52.599Z,275
2018-01-20T11:43:52.313Z,265
2018-01-20T11:44:52.031Z,265
2018-01-20T11:45:52.034Z,245
2018-01-20T11:46:51.725Z,250
2018-01-20T11:47:51.990Z,260
2018-01-20T11:48:52.236Z,295
2018-01-20T11:49:51.947Z,275
2018-01-20T11:50:51.689Z,290
2018-01-20T11:51:52.468Z,260
2018-01-20T11:52:52.181Z,265
2018-01-20T11:53:51.886Z,245
2018-01-20T11:54:51.875Z,225
2018-01-20T11:55:52.130Z,215
2018-01-20T11:56:52.099Z,225
2018-01-20T11:57:51.836Z,230
2018-01-20T11:58:52.106Z,205
2018-01-20T11:59:51.857Z,180
2018-01-20T12:00:52.597Z,175
2018-01-20T12:01:52.328Z,180
2018-01-20T12:02:52.014Z,195
2018-01-20T12:03:51.716Z,210
2018-01-20T12:04:51.733Z,210
2018-01-20T12:05:51.989Z,210
2018-01-20T12:06:51.403Z,210
2018-01-20T12:07:51.682Z,185
2018-01-20T12:08:51.654Z,150
2018-01-20T12:09:51.372Z,120
2018-01-20T12:10:51.633Z,105
2018-01-20T12:11:51.587Z,100
2018-01-20T12:13:23.662Z,105
2018-01-20T12:13:52.051Z,105
2018-01-20T12:14:51.824Z,115
2018-01-20T12:15:51.275Z,125
2018-01-20T12:16:51.509Z,130
2018-01-20T12:17:51.765Z,120
2018-01-20T12:18:51.204Z,105
2018-01-20T12:19:51.477Z,125
2018-01-20T12:20:51.978Z,140
2018-01-20T12:21:51.695Z,160
2018-01-20T12:22:51.985Z,165
2018-01-20T12:23:51.468Z,160
2018-01-20T12:24:51.382Z,155
2018-01-20T12:25:51.369Z,140
2018-01-20T12:26:51.609Z,160
2018-01-20T12:27:51.342Z,190
2018-01-20T12:28:51.603Z,220
2018-01-20T12:29:51.356Z,260
2018-01-20T12:30:51.273Z,265
2018-01-20T12:31:51.278Z,270
2018-01-20T12:32:51.525Z,280
2018-01-20T12:33:51.509Z,260
2018-01-20T12:34:51.240Z,255
2018-01-20T12:35:51.212Z,235
2018-01-20T12:36:51.177Z,220
2018-01-20T12:37:51.721Z,210
2018-01-20T12:38:50.897Z,200
2018-01-20T12:39:50.858Z,195
2018-01-20T12:40:51.133Z,200
2018-01-20T12:41:51.390Z,205
2018-01-20T12:42:50.820Z,210
2018-01-20T12:43:51.337Z,210
2018-01-20T12:44:51.318Z,200
2018-01-20T12:45:51.304Z,180
2018-01-20T12:46:51.544Z,170
2018-01-20T12:47:51.259Z,170
2018-01-20T12:48:50.970Z,165
2018-01-20T12:49:51.244Z,170
2018-01-20T12:50:51.213Z,165
2018-01-20T12:51:50.653Z,165
2018-01-20T12:52:50.929Z,160
2018-01-20T12:53:51.155Z,160
2018-01-20T12:54:50.615Z,160
2018-01-20T12:55:50.855Z,165
2018-01-20T12:56:50.860Z,165
2018-01-20T12:57:50.568Z,160
2018-01-20T12:58:51.136Z,165
2018-01-20T12:59:50.543Z,170
2018-01-20T13:00:51.047Z,165
2018-01-20T13:01:51.049Z,165
2018-01-20T13:02:51.286Z,165
2018-01-20T13:03:51.008Z,160
2018-01-20T13:04:50.736Z,160
2018-01-20T13:05:50.427Z,160
2018-01-20T13:06:50.399Z,160
2018-01-20T13:07:50.971Z,160
2018-01-20T13:08:50.688Z,160
2018-01-20T13:09:51.199Z,155
2018-01-20T13:10:50.631Z,155
2018-01-20T13:11:51.166Z,155
2018-01-20T13:12:51.138Z,155
2018-01-20T13:13:50.308Z,160
2018-01-20T13:14:50.549Z,160
2018-01-20T13:15:50.854Z,160
2018-01-20T13:16:50.240Z,165
2018-01-20T13:17:50.774Z,170
2018-01-20T13:18:50.786Z,175
2018-01-20T13:19:50.467Z,180
2018-01-20T13:20:50.718Z,180
2018-01-20T13:21:50.193Z,180
2018-01-20T13:22:50.412Z,180
2018-01-20T13:23:50.697Z,185
2018-01-20T13:24:50.370Z,185
2018-01-20T13:25:50.389Z,185
2018-01-20T13:26:50.343Z,185
2018-01-20T13:27:50.858Z,185
2018-01-20T13:28:50.585Z,180
2018-01-20T13:29:50.877Z,175
2018-01-20T13:30:50.558Z,175
2018-01-20T13:31:50.788Z,180
2018-01-20T13:32:50.231Z,180
2018-01-20T13:33:50.216Z,180
2018-01-20T13:34:50.541Z,170
2018-01-20T13:35:50.470Z,170
2018-01-20T13:36:50.181Z,165
2018-01-20T13:37:50.424Z,165
2018-01-20T13:38:50.162Z,165
2018-01-20T13:39:49.845Z,165
2018-01-20T13:40:49.830Z,160
2018-01-20T13:41:50.425Z,160
2018-01-20T13:42:50.362Z,160
2018-01-20T13:43:50.068Z,155
2018-01-20T13:44:50.038Z,145
2018-01-20T13:45:49.771Z,140
2018-01-20T13:46:49.749Z,135
2018-01-20T13:47:50.519Z,130
2018-01-20T13:48:49.965Z,125
2018-01-20T13:49:50.213Z,125
2018-01-20T13:50:49.940Z,120
2018-01-20T13:51:49.981Z,120
2018-01-20T13:52:50.175Z,120
2018-01-20T13:53:49.608Z,115
2018-01-20T13:54:49.618Z,115
2018-01-20T13:55:49.845Z,115
2018-01-20T13:56:50.097Z,115
2018-01-20T13:57:50.105Z,115
2018-01-20T13:58:50.146Z,115
2018-01-20T13:59:49.779Z,125
2018-01-20T14:00:49.767Z,115
2018-01-20T14:01:49.477Z,115
2018-01-20T14:02:49.476Z,120
2018-01-20T14:03:49.759Z,120
2018-01-20T14:04:49.429Z,120
2018-01-20T14:05:49.969Z,115
2018-01-20T14:06:49.682Z,115
2018-01-20T14:07:49.651Z,115
2018-01-20T14:08:49.914Z,110
2018-01-20T14:09:49.885Z,110
2018-01-20T14:10:49.317Z,105
2018-01-20T14:11:49.846Z,100
2018-01-20T14:12:49.586Z,100
2018-01-20T14:13:49.311Z,100
2018-01-20T14:14:50.083Z,95
2018-01-20T14:15:49.524Z,95
2018-01-20T14:16:49.766Z,90
2018-01-20T14:17:49.468Z,85
2018-01-20T14:18:49.471Z,80